Informes METAR cercanos

 

LELL - Sabadell, Spain
Distance from station: O 25km
Actualización: 08/12/2022 04:30:00
Poco nuboso
Poco nuboso
 Viento del calm
Viento: Calma
Temperatura: 9°C
Rocío: 7°C
Humedad: 87%
Barómetro: 1010 hPa
Clouds: Poco nuboso
Visibility: 8 km
Cloud details: Poco nuboso 152 m
2022/12/08 03:30 LELL 080330Z AUTO 00000KT 8000 FEW005 09/07 Q1010
LEBL - Barcelona Airpor, Spain
Distance from station: SO 38km
Actualización: 08/12/2022 04:30:00
Poco nuboso
Poco nuboso
 Viento del NNO
Viento: NNO 13 km/h
Temperatura: 10°C
Wind Chill: 8°C
Rocío: 7°C
Humedad: 82%
Barómetro: 1010 hPa
Clouds: Poco nuboso
Visibility: 10 km
Cloud details: Poco nuboso 549 m
2022/12/08 03:30 LEBL 080330Z 33007KT 9999 FEW018 10/07 Q1010 NOSIG
 
LEGE - Gerona/Costa Bra, Spain
Distance from station: NE 52km
Actualización: 08/12/2022 04:30:00
Muy nuboso
Muy nuboso
 Viento del N
Viento: N 11 km/h
Temperatura: 11°C
Rocío: 10°C
Humedad: 94%
Barómetro: 1010 hPa
Clouds: Muy nuboso
Visibility: 10 km
Cloud details: Poco nuboso 122 m
Muy nuboso 457 m
2022/12/08 03:30 LEGE 080330Z 01006KT 350V050 9999 FEW004 BKN015 11/10 Q1010
LERS - Reus (civ/Mil), Spain
Distance from station: OSO 111km
Actualización: 08/12/2022 04:30:00
Poco nuboso
Poco nuboso
 Viento del NE
Viento: NE 7 km/h
Temperatura: 7°C
Wind Chill: 6°C
Rocío: 7°C
Humedad: 100%
Barómetro: 1010 hPa
Clouds: Poco nuboso
Visibility: 9 km
Cloud details: Poco nuboso 701 m
2022/12/08 03:30 LERS 080330Z AUTO 04004KT 9000 FEW023 07/07 Q1010
 
LESU - Pirineus/La Seu, Spain
Distance from station: NO 124km
Actualización: 07/12/2022 11:33:00
NOT Current
Nearby fog, Cubierto
Nearby fog, Cubierto
 Viento del varies
Viento: varies 2 km/h
Temperatura: 4°C
Rocío: 4°C
Humedad: 100%
Barómetro: 1015 hPa
Resumen: Nearby Fog
Clouds: Cubierto
Visibility: 5 km
Cloud details: Cubierto 30 m
2022/12/07 10:33 LESU 071033Z VRB01KT 5000 VCFG VV001 04/04 Q1015
LFMP - Perpignan/Rivesa, France
Distance from station: NNE 141km
Actualización: 08/12/2022 05:00:00
Cubierto
Cubierto
 Viento del NNE
Viento: NNE 9 km/h
Temperatura: 9°C
Wind Chill: 7°C
Rocío: 6°C
Humedad: 82%
Barómetro: 1010 hPa
Clouds: Cubierto
Visibility: 10 km
Cloud details: Cubierto 396 m
2022/12/08 04:00 LFMP 080400Z AUTO 03005KT 9999 OVC013 09/06 Q1010 NOSIG